Time;durP1;ratioP1;P1;durP2;ratioP2;P2;SDS_P1;SDS_P2;PMS_P1;PMS_P2;Temp;Humidity;BMP_temperature;BMP_pressure;BME280_temperature;BME280_humidity;BME280_pressure;Samples;Min_cycle;Max_cycle;Signal;HPM_P1;HPM_P2
2024/02/18 00:02:00;;;;;;;3.53;2.30;;;3.40;99.90;3.20;102349.00;;;;4933656;28;87808;-71
2024/02/18 00:04:32;;;;;;;3.43;2.00;;;3.40;99.90;3.20;102345.00;;;;4935511;28;87901;-71
2024/02/18 00:06:59;;;;;;;3.10;2.63;;;3.40;99.90;3.20;102341.00;;;;4935270;28;88800;-71
2024/02/18 00:09:25;;;;;;;2.47;2.17;;;3.40;99.90;3.20;102341.00;;;;4933124;28;88570;-71
2024/02/18 00:11:50;;;;;;;3.30;1.97;;;4.30;99.90;3.30;102348.00;;;;4931842;28;109900;-71
2024/02/18 00:14:16;;;;;;;2.17;2.07;;;4.40;99.90;3.30;102345.00;;;;4930307;28;109631;-71
2024/02/18 00:16:42;;;;;;;2.30;2.10;;;3.80;99.90;3.40;102348.00;;;;4928209;28;98208;-70
2024/02/18 00:19:08;;;;;;;2.53;2.23;;;3.60;99.90;3.40;102342.00;;;;4934102;28;88726;-70
2024/02/18 00:21:34;;;;;;;3.63;2.70;;;3.50;99.90;3.50;102335.00;;;;4932169;28;88081;-71
2024/02/18 00:24:00;;;;;;;6.23;2.93;;;3.70;99.90;3.50;102346.00;;;;4938899;28;87591;-71
2024/02/18 00:26:27;;;;;;;2.47;2.03;;;3.70;99.90;3.60;102337.00;;;;4935491;28;92768;-71
2024/02/18 00:28:53;;;;;;;6.83;3.60;;;3.80;99.90;3.60;102346.00;;;;4933249;28;117943;-71
2024/02/18 00:31:18;;;;;;;14.37;4.60;;;3.70;99.90;3.60;102344.00;;;;4933455;28;89227;-71
2024/02/18 00:33:44;;;;;;;8.43;5.13;;;3.90;99.90;3.60;102339.00;;;;4934582;28;110009;-72
2024/02/18 00:36:09;;;;;;;9.80;6.37;;;3.80;99.90;3.60;102342.00;;;;4932958;28;87774;-71
2024/02/18 00:38:35;;;;;;;9.87;5.00;;;3.80;99.90;3.60;102338.00;;;;4931880;28;117883;-71
2024/02/18 00:41:03;;;;;;;7.63;4.40;;;3.70;99.90;3.60;102339.00;;;;4930225;28;116948;-71
2024/02/18 00:43:29;;;;;;;6.63;4.90;;;3.90;99.90;3.60;102327.00;;;;4931968;28;87922;-70
2024/02/18 00:45:54;;;;;;;6.67;4.27;;;3.90;99.90;3.60;102329.00;;;;4927483;28;95041;-72
2024/02/18 00:48:20;;;;;;;2.77;2.57;;;3.80;99.90;3.60;102342.00;;;;4931892;28;88130;-70
2024/02/18 00:50:46;;;;;;;2.93;2.13;;;3.90;99.90;3.50;102342.00;;;;4933591;28;116012;-70
2024/02/18 00:53:11;;;;;;;3.30;2.50;;;4.20;99.90;3.40;102340.00;;;;4930701;28;109446;-70
2024/02/18 00:55:42;;;;;;;1.50;1.40;;;3.90;99.90;3.40;102343.00;;;;4931905;28;89026;-70
2024/02/18 00:58:10;;;;;;;1.70;1.20;;;3.70;99.90;3.40;102341.00;;;;4936242;28;89083;-71
2024/02/18 01:00:36;;;;;;;3.17;2.23;;;3.50;99.90;3.30;102338.00;;;;4929115;28;88705;-70
2024/02/18 01:03:02;;;;;;;1.33;1.10;;;3.60;99.90;3.30;102338.00;;;;4929689;28;104144;-70
2024/02/18 01:05:28;;;;;;;2.70;1.43;;;3.60;99.90;3.30;102322.00;;;;4934203;28;87880;-70
2024/02/18 01:07:53;;;;;;;0.90;0.73;;;3.60;99.90;3.30;102329.00;;;;4928542;28;117805;-70
2024/02/18 01:10:19;;;;;;;1.47;1.37;;;3.40;99.90;3.20;102320.00;;;;4932545;28;116147;-70
2024/02/18 01:12:44;;;;;;;1.40;1.30;;;3.40;99.90;3.20;102322.00;;;;4930859;28;109931;-70
2024/02/18 01:15:10;;;;;;;2.60;1.50;;;3.50;99.90;3.20;102325.00;;;;4933322;28;107886;-70
2024/02/18 01:17:36;;;;;;;2.03;1.83;;;3.50;99.90;3.20;102313.00;;;;4931428;28;117077;-70
2024/02/18 01:20:02;;;;;;;2.30;1.17;;;3.30;99.90;3.10;102312.00;;;;4936508;28;116962;-70
2024/02/18 01:22:27;;;;;;;2.97;1.30;;;3.40;99.90;3.10;102311.00;;;;4933300;28;87752;-70
2024/02/18 01:24:53;;;;;;;4.20;1.57;;;3.30;99.90;3.00;102299.00;;;;4935312;28;88074;-70
2024/02/18 01:27:19;;;;;;;2.37;2.13;;;3.30;99.90;2.90;102301.00;;;;4928020;28;118252;-70
2024/02/18 01:29:44;;;;;;;1.97;1.30;;;3.30;99.90;2.80;102295.00;;;;4935176;28;87962;-70
2024/02/18 01:32:10;;;;;;;3.73;2.20;;;3.10;99.90;2.70;102309.00;;;;4931807;28;108790;-71
2024/02/18 01:34:42;;;;;;;2.97;2.53;;;3.00;99.90;2.60;102299.00;;;;4928809;28;107829;-70
2024/02/18 01:37:08;;;;;;;2.33;1.63;;;3.00;99.90;2.50;102305.00;;;;4928908;28;116299;-70
2024/02/18 01:39:33;;;;;;;1.70;1.40;;;2.90;99.90;2.50;102304.00;;;;4936932;28;88024;-70
2024/02/18 01:41:59;;;;;;;1.70;1.60;;;2.80;99.90;2.40;102303.00;;;;4926433;28;111039;-70
2024/02/18 01:44:25;;;;;;;2.47;1.83;;;2.70;99.90;2.40;102306.00;;;;4930229;28;108770;-70
2024/02/18 01:46:52;;;;;;;2.10;1.63;;;2.70;99.90;2.30;102296.00;;;;4927058;28;88322;-70
2024/02/18 01:49:18;;;;;;;1.70;1.60;;;2.70;99.90;2.30;102299.00;;;;4932769;28;101790;-70
2024/02/18 01:51:45;;;;;;;2.60;1.60;;;2.60;99.90;2.20;102288.00;;;;4930880;28;97490;-70
2024/02/18 01:54:11;;;;;;;1.60;1.33;;;2.50;99.90;2.10;102298.00;;;;4929390;28;108529;-70
2024/02/18 01:56:39;;;;;;;3.40;1.80;;;2.40;99.90;2.10;102310.00;;;;4946935;28;115950;-70
2024/02/18 01:59:05;;;;;;;2.57;1.77;;;2.50;99.90;2.10;102306.00;;;;4930691;28;87883;-70
2024/02/18 02:01:33;;;;;;;3.03;2.10;;;2.40;99.90;2.00;102320.00;;;;4931629;28;112168;-71
2024/02/18 02:03:59;;;;;;;2.87;1.87;;;2.30;99.90;1.90;102306.00;;;;4930093;28;109020;-71
2024/02/18 02:06:29;;;;;;;2.20;1.33;;;2.20;99.90;1.90;102317.00;;;;4930667;28;88196;-71
2024/02/18 02:08:56;;;;;;;1.73;1.53;;;2.30;99.90;1.80;102318.00;;;;4930761;28;103273;-70
2024/02/18 02:11:22;;;;;;;3.80;1.63;;;2.20;99.90;1.80;102328.00;;;;4941150;28;88050;-70
2024/02/18 02:13:47;;;;;;;3.57;2.00;;;2.10;99.90;1.80;102319.00;;;;4948227;28;87904;-71
2024/02/18 02:16:14;;;;;;;3.63;2.00;;;2.20;99.90;1.70;102316.00;;;;4931021;28;116689;-71
2024/02/18 02:18:40;;;;;;;5.90;2.03;;;2.00;99.90;1.70;102318.00;;;;4919605;28;90244;-71
2024/02/18 02:21:05;;;;;;;1.60;1.40;;;2.10;99.90;1.70;102321.00;;;;4927163;28;109544;-71
2024/02/18 02:23:32;;;;;;;2.60;1.50;;;2.00;99.90;1.60;102306.00;;;;4933486;28;108070;-70
2024/02/18 02:25:57;;;;;;;1.63;1.53;;;2.30;99.90;1.60;102312.00;;;;4929554;28;88340;-70
2024/02/18 02:28:26;;;;;;;1.80;1.70;;;2.40;99.90;1.50;102314.00;;;;4933847;28;116543;-71
2024/02/18 02:30:52;;;;;;;3.23;1.77;;;1.90;99.90;1.50;102308.00;;;;4936080;28;111185;-71
2024/02/18 02:33:20;;;;;;;3.17;2.07;;;1.70;99.90;1.50;102311.00;;;;4927875;28;107649;-70
2024/02/18 02:35:47;;;;;;;3.03;2.50;;;1.90;99.90;1.40;102312.00;;;;4929371;28;92800;-71
2024/02/18 02:38:13;;;;;;;2.97;1.83;;;1.20;99.90;1.40;102309.00;;;;4934804;28;88006;-71
2024/02/18 02:40:38;;;;;;;2.87;2.17;;;1.70;99.90;1.30;102299.00;;;;4933980;28;87799;-70
2024/02/18 02:43:04;;;;;;;2.07;1.73;;;1.60;99.90;1.30;102301.00;;;;4930605;28;108351;-70
2024/02/18 02:45:31;;;;;;;1.80;1.53;;;1.60;99.90;1.20;102309.00;;;;4928072;28;117412;-70
2024/02/18 02:47:56;;;;;;;5.33;2.43;;;1.60;99.90;1.20;102307.00;;;;4930922;28;88543;-71
2024/02/18 02:50:22;;;;;;;3.70;2.33;;;1.60;99.90;1.10;102293.00;;;;4930029;28;86815;-70
2024/02/18 02:52:48;;;;;;;3.07;1.77;;;1.50;99.90;1.10;102292.00;;;;4929861;28;109743;-70
2024/02/18 02:55:14;;;;;;;2.47;1.73;;;1.50;99.90;1.10;102295.00;;;;4926485;28;88764;-71
2024/02/18 02:57:40;;;;;;;3.80;1.77;;;1.50;99.90;1.10;102291.00;;;;4929579;28;98637;-70
2024/02/18 03:00:10;;;;;;;2.13;1.93;;;1.50;99.90;1.00;102298.00;;;;4928072;28;110515;-70
2024/02/18 03:02:36;;;;;;;1.43;1.23;;;1.40;99.90;1.00;102296.00;;;;4929088;28;88217;-70
2024/02/18 03:05:07;;;;;;;1.23;1.10;;;1.40;99.90;1.00;102294.00;;;;4931969;28;102701;-70
2024/02/18 03:07:33;;;;;;;2.00;1.80;;;1.40;99.90;0.90;102295.00;;;;4929440;28;103005;-70
2024/02/18 03:09:59;;;;;;;1.80;1.57;;;1.30;99.90;0.90;102304.00;;;;4930391;28;101345;-70
2024/02/18 03:12:24;;;;;;;1.97;1.47;;;1.40;99.90;0.80;102287.00;;;;4931067;28;108405;-70
2024/02/18 03:14:50;;;;;;;1.40;1.30;;;1.20;99.90;0.80;102294.00;;;;4927746;28;117434;-70
2024/02/18 03:17:16;;;;;;;4.70;1.93;;;1.10;99.90;0.80;102296.00;;;;4931427;28;106552;-70
2024/02/18 03:19:42;;;;;;;2.93;2.07;;;1.20;99.90;0.80;102291.00;;;;4931869;28;100645;-70
2024/02/18 03:22:09;;;;;;;1.43;1.30;;;1.10;99.90;0.70;102280.00;;;;4927395;28;102249;-70
2024/02/18 03:24:34;;;;;;;2.20;1.60;;;1.10;99.90;0.70;102279.00;;;;4931982;28;88363;-72
2024/02/18 03:27:00;;;;;;;2.63;2.20;;;1.10;99.90;0.60;102284.00;;;;4931445;28;117542;-71
2024/02/18 03:29:26;;;;;;;3.93;2.10;;;1.00;99.90;0.50;102286.00;;;;4933174;28;87928;-70
2024/02/18 03:31:55;;;;;;;5.87;2.60;;;1.00;99.90;0.50;102276.00;;;;4932952;28;87763;-71
2024/02/18 03:34:21;;;;;;;2.10;1.90;;;0.90;99.90;0.40;102266.00;;;;4930222;28;87793;-70
2024/02/18 03:36:47;;;;;;;1.93;1.53;;;0.80;99.90;0.40;102264.00;;;;4930804;28;95080;-71
2024/02/18 03:39:13;;;;;;;1.87;1.63;;;0.70;99.90;0.30;102248.00;;;;4934968;28;87152;-70
2024/02/18 03:41:39;;;;;;;2.43;2.13;;;0.70;99.90;0.30;102256.00;;;;4930550;28;87999;-70
2024/02/18 03:44:05;;;;;;;2.57;1.70;;;0.60;99.90;0.20;102243.00;;;;4928691;28;89407;-70
2024/02/18 03:46:30;;;;;;;1.73;1.03;;;0.50;99.90;0.10;102250.00;;;;4930135;28;89857;-70
2024/02/18 03:48:56;;;;;;;2.33;1.87;;;0.50;99.90;0.00;102253.00;;;;4932858;28;111754;-70
2024/02/18 03:51:22;;;;;;;2.07;1.87;;;0.40;99.90;0.00;102245.00;;;;4931556;28;88625;-70
2024/02/18 03:53:47;;;;;;;1.87;1.53;;;0.50;99.90;0.00;102250.00;;;;4927517;28;116377;-71
2024/02/18 03:56:13;;;;;;;2.20;1.57;;;0.30;99.90;0.00;102262.00;;;;4921503;28;116471;-70
2024/02/18 03:58:39;;;;;;;1.60;0.93;;;0.30;99.90;-0.10;102273.00;;;;4933824;28;114724;-70
2024/02/18 04:01:04;;;;;;;1.70;1.60;;;0.30;99.90;-0.10;102256.00;;;;4931850;28;108089;-70
2024/02/18 04:03:30;;;;;;;2.33;1.50;;;0.30;99.90;-0.10;102252.00;;;;4938018;28;115408;-70
2024/02/18 04:05:56;;;;;;;3.20;2.17;;;0.40;99.90;-0.20;102247.00;;;;4933175;28;108908;-72
2024/02/18 04:08:21;;;;;;;2.67;1.60;;;0.20;99.90;-0.20;102248.00;;;;4936778;28;110281;-70
2024/02/18 04:10:47;;;;;;;2.83;2.00;;;0.20;99.90;-0.20;102244.00;;;;4934813;28;108005;-73
2024/02/18 04:13:13;;;;;;;3.10;1.90;;;0.20;99.90;-0.20;102250.00;;;;4926007;28;108305;-70
2024/02/18 04:15:40;;;;;;;2.00;1.80;;;0.20;99.90;-0.20;102245.00;;;;4918078;28;89604;-69
2024/02/18 04:18:06;;;;;;;2.10;1.60;;;0.30;99.90;-0.20;102238.00;;;;4931202;28;87899;-72
2024/02/18 04:20:32;;;;;;;4.53;2.00;;;0.20;99.90;-0.20;102238.00;;;;4943135;28;102680;-72
2024/02/18 04:22:58;;;;;;;1.83;1.67;;;0.20;99.90;-0.20;102239.00;;;;4929584;28;118319;-71
2024/02/18 04:25:23;;;;;;;2.27;1.77;;;0.30;99.90;-0.30;102234.00;;;;4925708;28;117429;-72
2024/02/18 04:27:50;;;;;;;3.43;2.10;;;0.20;99.90;-0.30;102240.00;;;;4929563;28;99688;-72
2024/02/18 04:30:15;;;;;;;3.03;2.10;;;0.20;99.90;-0.30;102233.00;;;;4930297;28;88085;-70
2024/02/18 04:32:41;;;;;;;1.60;1.40;;;0.10;99.90;-0.30;102221.00;;;;4932562;28;108774;-70
2024/02/18 04:35:07;;;;;;;1.87;1.37;;;0.10;99.90;-0.40;102219.00;;;;4934670;28;116887;-69
2024/02/18 04:37:33;;;;;;;2.43;1.60;;;0.10;99.90;-0.40;102218.00;;;;4930768;28;99954;-70
2024/02/18 04:39:58;;;;;;;2.07;1.43;;;0.00;99.90;-0.40;102212.00;;;;4932969;28;107428;-70
2024/02/18 04:42:24;;;;;;;2.73;1.93;;;0.00;99.90;-0.40;102219.00;;;;4934156;28;118213;-70
2024/02/18 04:44:50;;;;;;;3.37;1.70;;;-0.10;99.90;-0.40;102222.00;;;;4931069;28;118797;-70
2024/02/18 04:47:16;;;;;;;3.30;1.80;;;0.00;99.90;-0.40;102227.00;;;;4932009;28;87995;-70
2024/02/18 04:49:42;;;;;;;1.90;1.70;;;0.00;99.90;-0.40;102225.00;;;;4930722;28;99175;-69
2024/02/18 04:52:08;;;;;;;2.33;2.07;;;0.00;99.90;-0.40;102215.00;;;;4932593;28;88290;-69
2024/02/18 04:54:33;;;;;;;1.67;1.33;;;-0.10;99.90;-0.40;102215.00;;;;4933416;28;87867;-70
2024/02/18 04:57:00;;;;;;;2.67;2.03;;;0.00;99.90;-0.40;102208.00;;;;4927836;28;87865;-69
2024/02/18 04:59:26;;;;;;;3.23;2.03;;;0.00;99.90;-0.30;102207.00;;;;4929985;28;89056;-69
2024/02/18 05:01:53;;;;;;;2.53;1.80;;;0.00;99.90;-0.30;102200.00;;;;4931456;28;107519;-70
2024/02/18 05:04:19;;;;;;;2.93;2.17;;;0.20;99.90;-0.30;102212.00;;;;4929355;28;88198;-69
2024/02/18 05:06:48;;;;;;;1.83;1.70;;;0.10;99.90;-0.30;102216.00;;;;4931426;28;90680;-69
2024/02/18 05:09:14;;;;;;;3.60;2.33;;;0.10;99.90;-0.30;102217.00;;;;4950155;28;87761;-69
2024/02/18 05:11:40;;;;;;;3.07;2.33;;;0.20;99.90;-0.30;102224.00;;;;4936252;28;117801;-69
2024/02/18 05:14:05;;;;;;;4.47;2.37;;;0.10;99.90;-0.30;102222.00;;;;4934193;28;117582;-70
2024/02/18 05:16:31;;;;;;;1.63;1.53;;;0.10;99.90;-0.30;102225.00;;;;4936812;28;88410;-69
2024/02/18 05:18:57;;;;;;;1.73;1.63;;;0.10;99.90;-0.30;102222.00;;;;4927337;28;108518;-69
2024/02/18 05:21:23;;;;;;;4.47;2.10;;;0.10;99.90;-0.30;102225.00;;;;4918115;28;116919;-70
2024/02/18 05:23:50;;;;;;;2.47;2.20;;;0.10;99.90;-0.30;102240.00;;;;4931033;28;89043;-69
2024/02/18 05:26:16;;;;;;;4.27;2.20;;;0.10;99.90;-0.30;102244.00;;;;4934818;28;87713;-69
2024/02/18 05:28:42;;;;;;;5.63;2.50;;;0.10;99.90;-0.40;102251.00;;;;4931628;28;87890;-70
2024/02/18 05:31:23;;;;;;;3.93;2.63;;;0.10;99.90;-0.40;102232.00;;;;4931120;28;117648;-70
2024/02/18 05:33:50;;;;;;;2.33;2.10;;;0.00;99.90;-0.40;102228.00;;;;4929610;28;88914;-69
2024/02/18 05:36:16;;;;;;;4.63;2.73;;;0.00;99.90;-0.40;102217.00;;;;4932438;28;95612;-69
2024/02/18 05:38:43;;;;;;;3.70;2.60;;;0.00;99.90;-0.40;102212.00;;;;4933250;28;88976;-70
2024/02/18 05:41:09;;;;;;;2.20;1.50;;;-0.10;99.90;-0.40;102214.00;;;;4931969;28;88264;-69
2024/02/18 05:43:34;;;;;;;2.47;2.20;;;-0.10;99.90;-0.40;102213.00;;;;4932593;28;88180;-70
2024/02/18 05:46:00;;;;;;;3.80;2.30;;;0.00;99.90;-0.50;102199.00;;;;4933530;28;87735;-70
2024/02/18 05:48:26;;;;;;;2.47;2.27;;;-0.10;99.90;-0.50;102192.00;;;;4930492;28;108835;-69
2024/02/18 05:50:51;;;;;;;2.57;1.80;;;-0.10;99.90;-0.60;102191.00;;;;4934043;28;117643;-69
2024/02/18 05:53:17;;;;;;;4.47;2.70;;;-0.20;99.90;-0.70;102182.00;;;;4947498;28;87900;-69
2024/02/18 05:55:43;;;;;;;4.87;2.30;;;-0.30;99.90;-0.70;102191.00;;;;4937583;28;87814;-69
2024/02/18 05:58:12;;;;;;;2.77;2.03;;;-0.30;99.90;-0.70;102191.00;;;;4928844;28;108266;-69
2024/02/18 06:00:38;;;;;;;4.77;2.40;;;-0.30;99.90;-0.70;102208.00;;;;4929897;28;88645;-69
2024/02/18 06:03:05;;;;;;;4.70;3.33;;;-0.30;99.90;-0.70;102209.00;;;;4926747;28;88139;-68
2024/02/18 06:05:30;;;;;;;3.23;2.30;;;-0.30;99.90;-0.70;102208.00;;;;4933407;28;87344;-69
2024/02/18 06:07:56;;;;;;;6.63;2.73;;;-0.40;99.90;-0.70;102192.00;;;;4918759;28;108839;-68
2024/02/18 06:10:23;;;;;;;3.20;2.63;;;-0.40;99.90;-0.70;102217.00;;;;4932655;28;88438;-68
2024/02/18 06:12:49;;;;;;;2.60;2.17;;;-0.30;99.90;-0.70;102218.00;;;;4930889;28;89032;-71
2024/02/18 06:15:14;;;;;;;5.80;3.20;;;-0.40;99.90;-0.70;102212.00;;;;4932676;28;88101;-69
2024/02/18 06:17:40;;;;;;;4.77;3.10;;;-0.30;99.90;-0.60;102209.00;;;;4933801;28;94467;-69
2024/02/18 06:20:10;;;;;;;5.03;3.47;;;-0.20;99.90;-0.60;102210.00;;;;4927067;28;88840;-69
2024/02/18 06:22:36;;;;;;;17.90;9.07;;;-0.20;99.90;-0.60;102207.00;;;;4930346;28;87930;-69
2024/02/18 06:25:03;;;;;;;19.87;12.70;;;-0.20;99.90;-0.60;102214.00;;;;4929861;28;87669;-69
2024/02/18 06:27:29;;;;;;;8.90;6.03;;;-0.20;99.90;-0.50;102222.00;;;;4926380;28;88086;-69
2024/02/18 06:29:55;;;;;;;4.00;3.60;;;-0.10;99.90;-0.50;102214.00;;;;4926588;28;114959;-69
2024/02/18 06:32:20;;;;;;;3.87;3.37;;;-0.20;99.90;-0.40;102215.00;;;;4928426;28;88215;-69
2024/02/18 06:34:46;;;;;;;3.97;2.43;;;-0.10;99.90;-0.40;102218.00;;;;4925455;28;106711;-69
2024/02/18 06:37:12;;;;;;;4.40;3.00;;;0.00;99.90;-0.30;102226.00;;;;4930358;28;88870;-69
2024/02/18 06:39:38;;;;;;;6.60;2.97;;;0.10;99.90;-0.20;102228.00;;;;4930225;28;116671;-69
2024/02/18 06:42:04;;;;;;;23.67;14.10;;;0.10;99.90;-0.10;102214.00;;;;4929660;28;110794;-69
2024/02/18 06:44:30;;;;;;;6.63;5.50;;;0.20;99.90;0.00;102230.00;;;;4926768;28;110944;-70
2024/02/18 06:46:55;;;;;;;7.40;4.50;;;0.30;99.90;0.10;102225.00;;;;4931771;28;108537;-69
2024/02/18 06:49:21;;;;;;;11.33;8.27;;;0.50;99.90;0.20;102226.00;;;;4922354;28;117801;-70
2024/02/18 06:51:47;;;;;;;4.23;3.00;;;-0.40;99.90;0.20;102211.00;;;;4927487;28;95864;-70
2024/02/18 06:54:12;;;;;;;2.47;2.20;;;0.50;99.90;0.20;102218.00;;;;4932205;28;87062;-70
2024/02/18 06:56:38;;;;;;;3.13;2.40;;;0.50;99.90;0.30;102213.00;;;;4930606;28;88006;-69
2024/02/18 06:59:04;;;;;;;4.20;3.63;;;0.60;99.90;0.40;102205.00;;;;4927381;28;88862;-70
2024/02/18 07:01:30;;;;;;;7.27;4.93;;;0.60;99.90;0.40;102209.00;;;;4928337;28;117697;-70
2024/02/18 07:03:55;;;;;;;17.23;11.90;;;0.70;99.90;0.60;102210.00;;;;4926808;28;87930;-70
2024/02/18 07:06:21;;;;;;;24.70;14.30;;;0.80;99.90;0.70;102225.00;;;;4925256;28;109708;-70
2024/02/18 07:08:47;;;;;;;6.73;4.87;;;1.00;99.90;0.90;102221.00;;;;4926718;28;117009;-71
2024/02/18 07:11:13;;;;;;;6.73;4.23;;;1.10;99.90;1.20;102222.00;;;;4915683;28;117076;-70
2024/02/18 07:13:39;;;;;;;5.57;3.03;;;1.40;99.90;1.40;102209.00;;;;4929651;28;87746;-70
2024/02/18 07:16:06;;;;;;;4.77;3.23;;;1.90;99.90;1.50;102223.00;;;;4926143;28;87672;-70
2024/02/18 07:18:32;;;;;;;4.27;3.30;;;1.90;99.90;1.60;102213.00;;;;4927331;28;102368;-70
2024/02/18 07:20:58;;;;;;;5.10;3.60;;;1.90;99.90;1.70;102218.00;;;;4926605;28;116802;-70
2024/02/18 07:23:23;;;;;;;6.03;3.90;;;1.90;99.90;1.90;102212.00;;;;4929734;28;110201;-72
2024/02/18 07:25:49;;;;;;;5.23;3.83;;;2.20;99.90;2.20;102209.00;;;;4924677;28;108281;-71
2024/02/18 07:28:15;;;;;;;2.70;2.37;;;2.30;99.90;2.50;102205.00;;;;4928732;28;88213;-71
2024/02/18 07:30:41;;;;;;;2.30;2.10;;;2.90;99.90;2.70;102204.00;;;;4929623;28;87925;-70
2024/02/18 07:33:07;;;;;;;3.60;2.23;;;2.90;99.90;2.90;102203.00;;;;4931300;28;101567;-70
2024/02/18 07:35:33;;;;;;;4.07;2.30;;;3.10;99.90;3.10;102206.00;;;;4935469;28;89197;-70
2024/02/18 07:37:59;;;;;;;3.67;2.63;;;3.30;99.90;3.40;102201.00;;;;4934383;28;118187;-70
2024/02/18 07:40:25;;;;;;;8.70;2.40;;;3.80;99.90;3.60;102186.00;;;;4929327;28;117077;-70
2024/02/18 07:42:50;;;;;;;3.43;2.53;;;3.80;99.90;3.70;102189.00;;;;4934341;28;87234;-70
2024/02/18 07:45:17;;;;;;;4.23;2.47;;;3.90;99.90;3.70;102187.00;;;;4932556;28;107450;-70
2024/02/18 07:47:43;;;;;;;2.33;1.50;;;3.90;99.90;3.60;102175.00;;;;4929914;28;88767;-70
2024/02/18 07:50:10;;;;;;;2.53;2.23;;;3.90;99.90;3.60;102172.00;;;;4932279;28;116949;-71
2024/02/18 07:52:35;;;;;;;2.73;1.63;;;3.80;99.90;3.80;102182.00;;;;4931617;28;88261;-69
2024/02/18 07:55:02;;;;;;;2.83;1.60;;;3.90;99.90;3.90;102180.00;;;;4928275;28;107475;-69
2024/02/18 07:57:27;;;;;;;4.37;3.77;;;4.80;99.90;4.20;102181.00;;;;4927688;28;101054;-70
2024/02/18 07:59:53;;;;;;;5.13;2.53;;;4.30;99.90;4.40;102168.00;;;;4926991;28;116635;-69
2024/02/18 08:02:19;;;;;;;8.63;3.43;;;5.30;99.90;4.60;102179.00;;;;4928876;28;87801;-70
2024/02/18 08:04:45;;;;;;;6.80;3.40;;;4.70;99.90;4.70;102175.00;;;;4931014;28;108888;-70
2024/02/18 08:07:10;;;;;;;7.77;3.70;;;4.90;99.90;4.90;102164.00;;;;4931253;28;116777;-70
2024/02/18 08:09:36;;;;;;;4.27;3.23;;;5.00;99.90;5.00;102168.00;;;;4929606;28;116798;-70
2024/02/18 08:12:02;;;;;;;2.60;2.40;;;5.10;99.90;5.10;102155.00;;;;4928356;28;88229;-69
2024/02/18 08:14:27;;;;;;;2.37;1.97;;;5.30;99.90;5.30;102167.00;;;;4929821;28;93141;-70
2024/02/18 08:16:55;;;;;;;6.10;2.80;;;5.40;99.90;5.50;102157.00;;;;4947654;28;117563;-70
2024/02/18 08:19:20;;;;;;;4.50;3.17;;;5.50;99.90;5.70;102158.00;;;;4929691;28;88585;-71
2024/02/18 08:21:46;;;;;;;3.23;2.43;;;5.80;99.90;5.80;102158.00;;;;4924364;28;102162;-71
2024/02/18 08:24:12;;;;;;;2.93;1.70;;;5.90;99.90;5.90;102141.00;;;;4918514;28;108074;-70
2024/02/18 08:26:37;;;;;;;3.30;2.27;;;6.00;99.90;6.00;102144.00;;;;4926795;28;117286;-70
2024/02/18 08:29:03;;;;;;;1.97;1.77;;;6.20;99.90;6.10;102140.00;;;;4928174;28;94989;-70
2024/02/18 08:31:28;;;;;;;2.47;1.70;;;6.20;99.90;6.20;102141.00;;;;4927683;28;110551;-70
2024/02/18 08:33:54;;;;;;;2.30;1.83;;;7.40;99.90;6.30;102141.00;;;;4930235;28;107688;-70
2024/02/18 08:36:20;;;;;;;2.57;2.07;;;6.50;99.90;6.50;102138.00;;;;4932325;28;118768;-70
2024/02/18 08:38:47;;;;;;;3.80;2.00;;;6.60;99.90;6.70;102137.00;;;;4925364;28;116866;-70
2024/02/18 08:41:13;;;;;;;2.23;1.83;;;6.80;99.90;6.80;102139.00;;;;4929624;28;91772;-70
2024/02/18 08:43:42;;;;;;;6.37;2.90;;;6.90;99.90;6.90;102116.00;;;;4930200;28;109657;-70
2024/02/18 08:46:09;;;;;;;3.10;1.87;;;7.10;99.90;7.00;102125.00;;;;4928924;28;88080;-70
2024/02/18 08:48:37;;;;;;;5.80;2.57;;;7.10;99.90;7.10;102121.00;;;;4929355;28;88685;-69
2024/02/18 08:51:04;;;;;;;3.07;2.77;;;7.30;99.90;7.20;102118.00;;;;4926530;28;88188;-72
2024/02/18 08:53:29;;;;;;;8.93;2.87;;;7.40;99.90;7.30;102107.00;;;;4928971;28;87908;-71
2024/02/18 08:55:55;;;;;;;4.27;2.57;;;7.50;99.90;7.30;102113.00;;;;4928470;28;116645;-72
2024/02/18 08:58:21;;;;;;;3.27;2.30;;;7.50;99.90;7.40;102104.00;;;;4926734;28;115836;-71
2024/02/18 09:00:47;;;;;;;12.20;3.33;;;7.50;99.90;7.60;102105.00;;;;4931762;28;110210;-70
2024/02/18 09:03:14;;;;;;;3.63;2.53;;;7.70;99.90;7.80;102113.00;;;;4928051;28;89023;-70
2024/02/18 09:05:40;;;;;;;5.37;2.90;;;7.80;99.90;8.10;102120.00;;;;4928435;28;91779;-71
2024/02/18 09:08:08;;;;;;;3.70;3.03;;;8.10;99.90;8.40;102116.00;;;;4925936;28;87723;-71
2024/02/18 09:10:34;;;;;;;3.33;3.03;;;9.10;99.90;8.70;102109.00;;;;4925789;28;87828;-69
2024/02/18 09:13:01;;;;;;;6.23;4.07;;;8.70;99.90;8.90;102113.00;;;;4925634;28;88180;-69
2024/02/18 09:15:30;;;;;;;3.67;2.53;;;8.90;99.90;9.00;102104.00;;;;4923375;28;88719;-69
2024/02/18 09:17:56;;;;;;;3.97;2.90;;;9.10;99.90;9.00;102113.00;;;;4926072;28;88838;-68
2024/02/18 09:20:25;;;;;;;2.10;1.80;;;9.10;99.90;9.00;102102.00;;;;4926443;28;87460;-72
2024/02/18 09:22:51;;;;;;;6.07;2.63;;;9.10;99.90;9.00;102100.00;;;;4943994;28;94314;-71
2024/02/18 09:25:17;;;;;;;4.30;1.90;;;9.10;99.90;9.00;102101.00;;;;4926547;28;88594;-71
2024/02/18 09:27:42;;;;;;;5.70;2.73;;;9.10;99.90;9.00;102100.00;;;;4926677;28;115864;-72
2024/02/18 09:30:09;;;;;;;4.30;3.20;;;9.00;99.90;9.10;102092.00;;;;4930440;28;110400;-70
2024/02/18 09:32:34;;;;;;;3.83;2.40;;;9.10;99.90;9.20;102096.00;;;;4928123;28;97368;-70
2024/02/18 09:35:00;;;;;;;3.20;2.30;;;9.20;99.90;9.10;102092.00;;;;4925099;28;118057;-69
2024/02/18 09:37:26;;;;;;;3.07;2.43;;;9.20;99.90;9.10;102086.00;;;;4926052;28;115328;-69
2024/02/18 09:39:51;;;;;;;7.03;2.87;;;9.20;99.90;9.10;102090.00;;;;4926552;28;88064;-69
2024/02/18 09:42:17;;;;;;;3.77;2.33;;;9.20;99.90;9.10;102091.00;;;;4927825;28;88188;-69
2024/02/18 09:44:46;;;;;;;3.43;2.33;;;9.10;99.90;9.20;102094.00;;;;4928618;28;91599;-69
2024/02/18 09:47:13;;;;;;;4.80;3.03;;;9.30;99.90;9.40;102085.00;;;;4926918;28;94869;-69
2024/02/18 09:49:39;;;;;;;4.27;2.43;;;9.30;99.90;9.60;102081.00;;;;4930441;28;91314;-69
2024/02/18 09:52:06;;;;;;;7.80;2.87;;;9.50;99.90;9.60;102081.00;;;;4926653;28;89188;-69
2024/02/18 09:54:34;;;;;;;3.27;2.57;;;9.60;99.90;9.70;102085.00;;;;4932240;28;88591;-70
2024/02/18 09:57:00;;;;;;;3.40;3.10;;;9.60;99.90;9.80;102075.00;;;;4931963;28;88200;-70
2024/02/18 09:59:26;;;;;;;2.73;1.80;;;9.80;99.90;9.90;102069.00;;;;4927503;28;97195;-70
2024/02/18 10:01:57;;;;;;;5.77;2.60;;;9.90;99.90;10.10;102064.00;;;;4940932;28;88265;-71
2024/02/18 10:04:23;;;;;;;6.67;2.80;;;10.00;99.90;10.20;102067.00;;;;4927710;28;87998;-72
2024/02/18 10:06:49;;;;;;;2.07;1.53;;;10.20;99.90;10.30;102055.00;;;;4921726;28;118861;-71
2024/02/18 10:09:14;;;;;;;2.40;2.03;;;10.30;99.90;10.50;102066.00;;;;4925616;28;101985;-71
2024/02/18 10:11:40;;;;;;;3.67;1.87;;;10.40;99.90;10.60;102063.00;;;;4922835;28;98811;-73
2024/02/18 10:14:06;;;;;;;4.50;2.17;;;10.60;99.90;10.70;102076.00;;;;4926011;28;116689;-71
2024/02/18 10:16:36;;;;;;;3.17;2.03;;;10.60;99.90;10.70;102050.00;;;;4927708;28;88790;-70
2024/02/18 10:19:01;;;;;;;3.50;2.00;;;10.30;99.90;10.80;102055.00;;;;4928443;28;87897;-70
2024/02/18 10:21:27;;;;;;;2.50;2.07;;;10.80;99.90;11.00;102050.00;;;;4925895;28;87933;-70
2024/02/18 10:23:54;;;;;;;3.27;1.87;;;10.90;99.90;11.10;102048.00;;;;4927866;28;116471;-70
2024/02/18 10:26:21;;;;;;;3.90;2.73;;;11.10;99.90;11.40;102034.00;;;;4925396;28;88910;-72
2024/02/18 10:28:47;;;;;;;3.60;2.43;;;11.30;99.90;11.60;102037.00;;;;4928890;28;88336;-71
2024/02/18 10:31:12;;;;;;;3.60;2.60;;;11.50;99.90;11.90;102022.00;;;;4927528;28;109329;-71
2024/02/18 10:33:39;;;;;;;5.07;3.13;;;11.70;99.90;12.10;102026.00;;;;4928563;28;116378;-70
2024/02/18 10:36:12;;;;;;;4.83;2.43;;;11.90;99.90;12.40;102033.00;;;;4929215;28;88020;-70
2024/02/18 10:38:46;;;;;;;4.50;2.77;;;12.20;99.90;12.60;102017.00;;;;4931715;28;88897;-72
2024/02/18 10:41:34;;;;;;;6.10;3.00;;;12.40;99.90;12.80;102017.00;;;;4944468;28;88951;-70
2024/02/18 10:44:03;;;;;;;3.40;2.47;;;12.70;99.90;13.00;102011.00;;;;4922714;28;88222;-70
2024/02/18 10:46:30;;;;;;;5.07;2.53;;;12.80;99.90;13.20;102014.00;;;;4910158;28;104906;-70
2024/02/18 10:49:06;;;;;;;3.67;2.43;;;13.00;99.90;13.30;102002.00;;;;4934134;28;110237;-70
2024/02/18 10:51:38;;;;;;;2.27;2.07;;;13.10;99.90;13.40;102007.00;;;;4943330;28;93763;-70